Airport View

Enter AWOS ICAO identifier for current METAR.

ex. KFNL

KC35 251210Z AUTO 16003KT 10SM CLR 14/14 A2992 RMK AO2 T01380138 PWINO

25 Sep 2020 12:12

Frequency: 118.95

Phone: 608-768-0023

Other Area AWOS: KDLL - K82C - KLNR - KVOK

TAF KVOK 250900Z 2509/2615 VRB06KT 8000 BR SCT008 QNH2985INS BECMG 2511/2512 19009KT 9999 NSW FEW020 QNH2987INS BECMG 2516/2517 19012G18KT 9999 FEW020 QNH2987INS BECMG 2518/2519 22009KT 9999 SCT020 QNH2978INS BECMG 2607/2608 24006KT 9999 OVC020 QNH2975INS TX23/2520Z TN12/2512Z